sensor_id;sensor_type;location;lat;lon;timestamp;P1;durP1;ratioP1;P2;durP2;ratioP2
10890;SDS011;5498;50.928;11.598;2022-07-29T00:02:26;976.03;;;888.33;;
10890;SDS011;5498;50.928;11.598;2022-07-29T00:05:28;969.67;;;882.27;;
10890;SDS011;5498;50.928;11.598;2022-07-29T00:08:30;980.90;;;893.00;;
10890;SDS011;5498;50.928;11.598;2022-07-29T00:11:32;984.30;;;896.27;;
10890;SDS011;5498;50.928;11.598;2022-07-29T00:14:35;971.53;;;883.80;;
10890;SDS011;5498;50.928;11.598;2022-07-29T00:17:37;997.93;;;909.27;;
10890;SDS011;5498;50.928;11.598;2022-07-29T00:20:39;993.80;;;905.17;;
10890;SDS011;5498;50.928;11.598;2022-07-29T00:23:41;989.53;;;901.47;;
10890;SDS011;5498;50.928;11.598;2022-07-29T00:26:43;987.27;;;898.03;;
10890;SDS011;5498;50.928;11.598;2022-07-29T00:29:46;994.33;;;905.57;;
10890;SDS011;5498;50.928;11.598;2022-07-29T00:32:48;991.63;;;902.97;;
10890;SDS011;5498;50.928;11.598;2022-07-29T00:35:50;986.40;;;898.20;;
10890;SDS011;5498;50.928;11.598;2022-07-29T00:38:52;971.20;;;883.30;;
10890;SDS011;5498;50.928;11.598;2022-07-29T00:41:54;958.20;;;871.10;;
10890;SDS011;5498;50.928;11.598;2022-07-29T00:44:57;971.90;;;883.57;;
10890;SDS011;5498;50.928;11.598;2022-07-29T00:47:59;975.13;;;887.33;;
10890;SDS011;5498;50.928;11.598;2022-07-29T00:51:02;963.03;;;876.00;;
10890;SDS011;5498;50.928;11.598;2022-07-29T00:54:07;936.97;;;851.27;;
10890;SDS011;5498;50.928;11.598;2022-07-29T00:57:09;927.97;;;842.87;;
10890;SDS011;5498;50.928;11.598;2022-07-29T01:00:13;938.00;;;852.47;;
10890;SDS011;5498;50.928;11.598;2022-07-29T01:03:18;930.70;;;845.37;;
10890;SDS011;5498;50.928;11.598;2022-07-29T01:06:20;940.07;;;853.93;;
10890;SDS011;5498;50.928;11.598;2022-07-29T01:09:23;929.53;;;844.43;;
10890;SDS011;5498;50.928;11.598;2022-07-29T01:12:27;933.93;;;848.43;;
10890;SDS011;5498;50.928;11.598;2022-07-29T01:15:34;941.97;;;855.93;;
10890;SDS011;5498;50.928;11.598;2022-07-29T01:18:44;927.50;;;842.33;;
10890;SDS011;5498;50.928;11.598;2022-07-29T01:21:51;923.03;;;838.00;;
10890;SDS011;5498;50.928;11.598;2022-07-29T01:25:03;912.77;;;828.23;;
10890;SDS011;5498;50.928;11.598;2022-07-29T01:28:37;923.73;;;838.40;;
10890;SDS011;5498;50.928;11.598;2022-07-29T01:31:51;905.83;;;821.57;;
10890;SDS011;5498;50.928;11.598;2022-07-29T01:35:00;933.30;;;847.50;;
10890;SDS011;5498;50.928;11.598;2022-07-29T01:38:08;945.53;;;859.23;;
10890;SDS011;5498;50.928;11.598;2022-07-29T01:41:12;917.13;;;832.03;;
10890;SDS011;5498;50.928;11.598;2022-07-29T01:44:20;935.47;;;849.97;;
10890;SDS011;5498;50.928;11.598;2022-07-29T01:47:31;930.80;;;845.63;;
10890;SDS011;5498;50.928;11.598;2022-07-29T01:50:40;912.00;;;827.20;;
10890;SDS011;5498;50.928;11.598;2022-07-29T01:53:54;926.43;;;840.83;;
10890;SDS011;5498;50.928;11.598;2022-07-29T01:57:06;919.77;;;834.83;;
10890;SDS011;5498;50.928;11.598;2022-07-29T02:00:12;931.03;;;845.83;;
10890;SDS011;5498;50.928;11.598;2022-07-29T02:03:16;935.47;;;850.07;;
10890;SDS011;5498;50.928;11.598;2022-07-29T02:06:20;932.60;;;846.77;;
10890;SDS011;5498;50.928;11.598;2022-07-29T02:09:23;925.33;;;840.43;;
10890;SDS011;5498;50.928;11.598;2022-07-29T02:12:27;911.10;;;826.77;;
10890;SDS011;5498;50.928;11.598;2022-07-29T02:15:32;928.87;;;843.67;;
10890;SDS011;5498;50.928;11.598;2022-07-29T02:18:35;946.53;;;860.57;;
10890;SDS011;5498;50.928;11.598;2022-07-29T02:21:38;937.13;;;851.43;;
10890;SDS011;5498;50.928;11.598;2022-07-29T02:24:42;938.40;;;852.60;;
10890;SDS011;5498;50.928;11.598;2022-07-29T02:27:45;950.03;;;864.20;;
10890;SDS011;5498;50.928;11.598;2022-07-29T02:30:52;942.07;;;856.47;;
10890;SDS011;5498;50.928;11.598;2022-07-29T02:33:56;937.63;;;852.30;;
10890;SDS011;5498;50.928;11.598;2022-07-29T02:36:59;935.90;;;850.60;;
10890;SDS011;5498;50.928;11.598;2022-07-29T02:40:02;909.07;;;825.07;;
10890;SDS011;5498;50.928;11.598;2022-07-29T02:43:06;923.53;;;839.03;;
10890;SDS011;5498;50.928;11.598;2022-07-29T02:46:13;895.83;;;812.40;;
10890;SDS011;5498;50.928;11.598;2022-07-29T02:49:25;926.50;;;841.63;;
10890;SDS011;5498;50.928;11.598;2022-07-29T02:52:38;917.97;;;833.83;;
10890;SDS011;5498;50.928;11.598;2022-07-29T02:55:45;891.93;;;808.90;;
10890;SDS011;5498;50.928;11.598;2022-07-29T02:58:54;902.80;;;818.63;;
10890;SDS011;5498;50.928;11.598;2022-07-29T03:02:01;912.97;;;829.00;;
10890;SDS011;5498;50.928;11.598;2022-07-29T03:05:06;898.83;;;815.47;;
10890;SDS011;5498;50.928;11.598;2022-07-29T03:08:12;884.90;;;801.70;;
10890;SDS011;5498;50.928;11.598;2022-07-29T03:11:17;890.23;;;807.27;;
10890;SDS011;5498;50.928;11.598;2022-07-29T03:14:19;868.20;;;786.13;;
10890;SDS011;5498;50.928;11.598;2022-07-29T03:17:24;874.67;;;792.03;;
10890;SDS011;5498;50.928;11.598;2022-07-29T03:20:26;888.00;;;805.27;;
10890;SDS011;5498;50.928;11.598;2022-07-29T03:23:28;879.67;;;796.67;;
10890;SDS011;5498;50.928;11.598;2022-07-29T03:26:31;863.37;;;781.10;;
10890;SDS011;5498;50.928;11.598;2022-07-29T03:29:33;877.40;;;794.87;;
10890;SDS011;5498;50.928;11.598;2022-07-29T03:32:37;878.80;;;795.97;;
10890;SDS011;5498;50.928;11.598;2022-07-29T03:35:40;864.87;;;782.67;;
10890;SDS011;5498;50.928;11.598;2022-07-29T03:38:43;895.37;;;811.93;;
10890;SDS011;5498;50.928;11.598;2022-07-29T03:41:47;885.63;;;802.93;;
10890;SDS011;5498;50.928;11.598;2022-07-29T03:44:51;866.57;;;784.77;;
10890;SDS011;5498;50.928;11.598;2022-07-29T03:47:58;888.93;;;805.93;;
10890;SDS011;5498;50.928;11.598;2022-07-29T03:51:05;891.53;;;808.47;;
10890;SDS011;5498;50.928;11.598;2022-07-29T03:54:07;851.40;;;770.10;;
10890;SDS011;5498;50.928;11.598;2022-07-29T03:57:09;872.90;;;790.50;;
10890;SDS011;5498;50.928;11.598;2022-07-29T04:00:13;857.73;;;776.43;;
10890;SDS011;5498;50.928;11.598;2022-07-29T04:03:17;835.70;;;754.83;;
10890;SDS011;5498;50.928;11.598;2022-07-29T04:06:19;868.67;;;787.03;;
10890;SDS011;5498;50.928;11.598;2022-07-29T04:09:21;880.90;;;798.30;;
10890;SDS011;5498;50.928;11.598;2022-07-29T04:12:23;874.87;;;792.60;;
10890;SDS011;5498;50.928;11.598;2022-07-29T04:15:25;839.90;;;759.17;;
10890;SDS011;5498;50.928;11.598;2022-07-29T04:18:29;871.73;;;789.73;;
10890;SDS011;5498;50.928;11.598;2022-07-29T04:21:36;858.40;;;776.90;;
10890;SDS011;5498;50.928;11.598;2022-07-29T04:24:38;894.23;;;811.07;;
10890;SDS011;5498;50.928;11.598;2022-07-29T04:27:40;849.33;;;768.17;;
10890;SDS011;5498;50.928;11.598;2022-07-29T04:30:56;850.20;;;769.00;;
10890;SDS011;5498;50.928;11.598;2022-07-29T04:33:59;834.50;;;753.63;;
10890;SDS011;5498;50.928;11.598;2022-07-29T04:37:01;846.10;;;765.07;;
10890;SDS011;5498;50.928;11.598;2022-07-29T04:40:04;850.43;;;768.97;;
10890;SDS011;5498;50.928;11.598;2022-07-29T04:43:07;876.10;;;793.70;;
10890;SDS011;5498;50.928;11.598;2022-07-29T04:46:10;885.77;;;802.97;;
10890;SDS011;5498;50.928;11.598;2022-07-29T04:49:13;864.10;;;782.20;;
10890;SDS011;5498;50.928;11.598;2022-07-29T04:52:15;841.77;;;760.13;;
10890;SDS011;5498;50.928;11.598;2022-07-29T04:55:20;860.00;;;778.03;;
10890;SDS011;5498;50.928;11.598;2022-07-29T04:58:22;864.13;;;782.13;;
10890;SDS011;5498;50.928;11.598;2022-07-29T05:01:24;859.47;;;778.00;;
10890;SDS011;5498;50.928;11.598;2022-07-29T05:04:27;863.70;;;781.70;;
10890;SDS011;5498;50.928;11.598;2022-07-29T05:07:29;857.57;;;776.30;;
10890;SDS011;5498;50.928;11.598;2022-07-29T05:10:31;869.40;;;787.60;;
10890;SDS011;5498;50.928;11.598;2022-07-29T05:13:39;837.07;;;756.20;;
10890;SDS011;5498;50.928;11.598;2022-07-29T05:16:41;866.80;;;784.83;;
10890;SDS011;5498;50.928;11.598;2022-07-29T05:19:44;854.23;;;772.57;;
10890;SDS011;5498;50.928;11.598;2022-07-29T05:22:49;854.33;;;773.37;;
10890;SDS011;5498;50.928;11.598;2022-07-29T05:25:50;865.33;;;783.53;;
10890;SDS011;5498;50.928;11.598;2022-07-29T05:28:52;856.37;;;774.97;;
10890;SDS011;5498;50.928;11.598;2022-07-29T05:31:55;877.73;;;795.50;;
10890;SDS011;5498;50.928;11.598;2022-07-29T05:34:58;836.93;;;756.30;;
10890;SDS011;5498;50.928;11.598;2022-07-29T05:38:01;873.13;;;791.17;;
10890;SDS011;5498;50.928;11.598;2022-07-29T05:41:02;877.33;;;794.80;;
10890;SDS011;5498;50.928;11.598;2022-07-29T05:44:05;850.87;;;769.50;;
10890;SDS011;5498;50.928;11.598;2022-07-29T05:47:07;880.47;;;798.30;;
10890;SDS011;5498;50.928;11.598;2022-07-29T05:50:10;886.63;;;804.10;;
10890;SDS011;5498;50.928;11.598;2022-07-29T05:53:12;885.70;;;802.97;;
10890;SDS011;5498;50.928;11.598;2022-07-29T05:56:14;892.37;;;809.40;;
10890;SDS011;5498;50.928;11.598;2022-07-29T05:59:16;875.30;;;792.57;;
10890;SDS011;5498;50.928;11.598;2022-07-29T06:02:18;875.80;;;793.30;;
10890;SDS011;5498;50.928;11.598;2022-07-29T06:05:21;863.90;;;782.10;;
10890;SDS011;5498;50.928;11.598;2022-07-29T06:08:23;861.83;;;779.87;;
10890;SDS011;5498;50.928;11.598;2022-07-29T06:11:25;872.50;;;790.50;;
10890;SDS011;5498;50.928;11.598;2022-07-29T06:14:27;882.40;;;799.93;;
10890;SDS011;5498;50.928;11.598;2022-07-29T06:17:29;902.93;;;819.23;;
10890;SDS011;5498;50.928;11.598;2022-07-29T06:20:32;922.37;;;838.33;;
10890;SDS011;5498;50.928;11.598;2022-07-29T06:23:34;942.13;;;856.67;;
10890;SDS011;5498;50.928;11.598;2022-07-29T06:26:36;991.07;;;903.27;;
10890;SDS011;5498;50.928;11.598;2022-07-29T06:29:38;1014.27;;;924.73;;
10890;SDS011;5498;50.928;11.598;2022-07-29T06:32:41;1025.67;;;936.43;;
10890;SDS011;5498;50.928;11.598;2022-07-29T06:35:44;1035.10;;;945.43;;
10890;SDS011;5498;50.928;11.598;2022-07-29T06:38:47;1072.03;;;980.07;;
10890;SDS011;5498;50.928;11.598;2022-07-29T06:41:49;1080.37;;;988.00;;
10890;SDS011;5498;50.928;11.598;2022-07-29T06:44:51;1121.97;;;999.90;;
10890;SDS011;5498;50.928;11.598;2022-07-29T06:47:53;1118.77;;;999.90;;
10890;SDS011;5498;50.928;11.598;2022-07-29T06:50:56;1152.90;;;999.90;;
10890;SDS011;5498;50.928;11.598;2022-07-29T06:53:59;1161.70;;;999.90;;
10890;SDS011;5498;50.928;11.598;2022-07-29T06:57:01;1181.63;;;999.90;;
10890;SDS011;5498;50.928;11.598;2022-07-29T07:00:04;1190.90;;;999.90;;
10890;SDS011;5498;50.928;11.598;2022-07-29T07:03:07;1201.83;;;999.90;;
10890;SDS011;5498;50.928;11.598;2022-07-29T07:06:10;1197.67;;;999.90;;
10890;SDS011;5498;50.928;11.598;2022-07-29T07:09:12;1209.87;;;999.90;;
10890;SDS011;5498;50.928;11.598;2022-07-29T07:12:14;1216.37;;;999.90;;
10890;SDS011;5498;50.928;11.598;2022-07-29T07:15:16;1207.17;;;999.90;;
10890;SDS011;5498;50.928;11.598;2022-07-29T07:18:21;1210.37;;;999.90;;
10890;SDS011;5498;50.928;11.598;2022-07-29T07:21:24;1233.10;;;999.90;;
10890;SDS011;5498;50.928;11.598;2022-07-29T07:24:27;1230.87;;;999.90;;
10890;SDS011;5498;50.928;11.598;2022-07-29T07:27:28;1241.37;;;999.90;;
10890;SDS011;5498;50.928;11.598;2022-07-29T07:30:30;1241.47;;;999.90;;
10890;SDS011;5498;50.928;11.598;2022-07-29T07:33:33;1277.93;;;999.90;;
10890;SDS011;5498;50.928;11.598;2022-07-29T07:36:36;1288.53;;;999.90;;
10890;SDS011;5498;50.928;11.598;2022-07-29T07:39:38;1286.37;;;999.90;;
10890;SDS011;5498;50.928;11.598;2022-07-29T07:42:40;1295.47;;;999.90;;
10890;SDS011;5498;50.928;11.598;2022-07-29T07:45:42;1291.37;;;999.90;;
10890;SDS011;5498;50.928;11.598;2022-07-29T07:48:44;1307.00;;;999.90;;
10890;SDS011;5498;50.928;11.598;2022-07-29T07:51:47;1302.53;;;999.90;;
10890;SDS011;5498;50.928;11.598;2022-07-29T07:54:49;1293.47;;;999.90;;
10890;SDS011;5498;50.928;11.598;2022-07-29T07:57:51;1290.73;;;999.90;;
10890;SDS011;5498;50.928;11.598;2022-07-29T08:00:53;1285.03;;;999.90;;
10890;SDS011;5498;50.928;11.598;2022-07-29T08:03:55;1262.20;;;999.90;;
10890;SDS011;5498;50.928;11.598;2022-07-29T08:06:58;1263.97;;;999.90;;
10890;SDS011;5498;50.928;11.598;2022-07-29T08:10:01;1240.10;;;999.90;;
10890;SDS011;5498;50.928;11.598;2022-07-29T08:13:04;1237.10;;;999.90;;
10890;SDS011;5498;50.928;11.598;2022-07-29T08:16:08;1245.27;;;999.90;;
10890;SDS011;5498;50.928;11.598;2022-07-29T08:22:19;1265.70;;;999.90;;
10890;SDS011;5498;50.928;11.598;2022-07-29T08:25:21;1282.30;;;999.90;;
10890;SDS011;5498;50.928;11.598;2022-07-29T08:28:23;1290.70;;;999.90;;
10890;SDS011;5498;50.928;11.598;2022-07-29T08:31:25;1297.83;;;999.90;;
10890;SDS011;5498;50.928;11.598;2022-07-29T08:34:27;1306.90;;;999.90;;
10890;SDS011;5498;50.928;11.598;2022-07-29T08:37:31;1312.87;;;999.90;;
10890;SDS011;5498;50.928;11.598;2022-07-29T08:40:33;1312.87;;;999.90;;
10890;SDS011;5498;50.928;11.598;2022-07-29T08:43:35;1307.20;;;999.90;;
10890;SDS011;5498;50.928;11.598;2022-07-29T08:46:38;1316.07;;;999.90;;
10890;SDS011;5498;50.928;11.598;2022-07-29T08:49:40;1317.33;;;999.90;;
10890;SDS011;5498;50.928;11.598;2022-07-29T08:52:43;1299.77;;;999.90;;
10890;SDS011;5498;50.928;11.598;2022-07-29T08:55:46;1305.33;;;999.90;;
10890;SDS011;5498;50.928;11.598;2022-07-29T08:58:49;1304.77;;;999.90;;
10890;SDS011;5498;50.928;11.598;2022-07-29T09:01:52;1303.47;;;999.90;;
10890;SDS011;5498;50.928;11.598;2022-07-29T09:04:55;1303.40;;;999.90;;
10890;SDS011;5498;50.928;11.598;2022-07-29T09:08:02;1294.83;;;999.90;;
10890;SDS011;5498;50.928;11.598;2022-07-29T09:11:05;1292.23;;;999.90;;
10890;SDS011;5498;50.928;11.598;2022-07-29T09:14:10;1296.87;;;999.90;;
10890;SDS011;5498;50.928;11.598;2022-07-29T09:17:14;1291.20;;;999.90;;
10890;SDS011;5498;50.928;11.598;2022-07-29T09:20:19;1307.73;;;999.90;;
10890;SDS011;5498;50.928;11.598;2022-07-29T09:23:24;1294.97;;;999.90;;
10890;SDS011;5498;50.928;11.598;2022-07-29T09:26:27;1296.23;;;999.90;;
10890;SDS011;5498;50.928;11.598;2022-07-29T09:29:30;1301.73;;;999.90;;
10890;SDS011;5498;50.928;11.598;2022-07-29T09:36:00;1301.00;;;999.90;;
10890;SDS011;5498;50.928;11.598;2022-07-29T09:39:06;1315.63;;;999.90;;
10890;SDS011;5498;50.928;11.598;2022-07-29T09:42:09;1309.40;;;999.90;;
10890;SDS011;5498;50.928;11.598;2022-07-29T09:45:13;1312.47;;;999.90;;
10890;SDS011;5498;50.928;11.598;2022-07-29T09:48:29;1314.03;;;999.90;;
10890;SDS011;5498;50.928;11.598;2022-07-29T09:51:31;1309.40;;;999.90;;
10890;SDS011;5498;50.928;11.598;2022-07-29T09:54:35;1307.07;;;999.90;;
10890;SDS011;5498;50.928;11.598;2022-07-29T09:57:38;1299.60;;;999.90;;
10890;SDS011;5498;50.928;11.598;2022-07-29T10:00:41;1311.97;;;999.90;;
10890;SDS011;5498;50.928;11.598;2022-07-29T10:03:50;1299.77;;;999.90;;
10890;SDS011;5498;50.928;11.598;2022-07-29T10:06:56;1304.30;;;999.90;;
10890;SDS011;5498;50.928;11.598;2022-07-29T10:10:02;1296.13;;;999.90;;
10890;SDS011;5498;50.928;11.598;2022-07-29T10:13:07;1293.33;;;999.90;;
10890;SDS011;5498;50.928;11.598;2022-07-29T10:16:13;1298.77;;;999.90;;
10890;SDS011;5498;50.928;11.598;2022-07-29T10:19:16;1286.23;;;999.90;;
10890;SDS011;5498;50.928;11.598;2022-07-29T10:22:18;1294.73;;;999.90;;
10890;SDS011;5498;50.928;11.598;2022-07-29T10:25:23;1293.70;;;999.90;;
10890;SDS011;5498;50.928;11.598;2022-07-29T10:28:26;1280.70;;;999.90;;
10890;SDS011;5498;50.928;11.598;2022-07-29T10:31:28;1272.50;;;999.90;;
10890;SDS011;5498;50.928;11.598;2022-07-29T10:34:47;1265.63;;;999.90;;
10890;SDS011;5498;50.928;11.598;2022-07-29T10:45:07;1265.23;;;999.90;;
10890;SDS011;5498;50.928;11.598;2022-07-29T10:48:09;1277.93;;;999.90;;
10890;SDS011;5498;50.928;11.598;2022-07-29T10:51:10;1266.10;;;999.90;;
10890;SDS011;5498;50.928;11.598;2022-07-29T10:54:13;1267.90;;;999.90;;
10890;SDS011;5498;50.928;11.598;2022-07-29T10:57:21;1258.60;;;999.90;;
10890;SDS011;5498;50.928;11.598;2022-07-29T11:00:30;1264.27;;;999.90;;
10890;SDS011;5498;50.928;11.598;2022-07-29T11:03:43;1259.57;;;999.90;;
10890;SDS011;5498;50.928;11.598;2022-07-29T11:10:22;1277.87;;;999.90;;
10890;SDS011;5498;50.928;11.598;2022-07-29T11:16:59;1279.93;;;999.90;;
10890;SDS011;5498;50.928;11.598;2022-07-29T11:23:38;1282.03;;;999.90;;
10890;SDS011;5498;50.928;11.598;2022-07-29T11:26:42;1282.30;;;999.90;;
10890;SDS011;5498;50.928;11.598;2022-07-29T11:29:51;1267.83;;;999.90;;
10890;SDS011;5498;50.928;11.598;2022-07-29T11:32:56;1271.53;;;999.90;;
10890;SDS011;5498;50.928;11.598;2022-07-29T11:36:06;1271.23;;;999.90;;
10890;SDS011;5498;50.928;11.598;2022-07-29T11:39:27;1274.90;;;999.90;;
10890;SDS011;5498;50.928;11.598;2022-07-29T11:42:42;1268.87;;;999.90;;
10890;SDS011;5498;50.928;11.598;2022-07-29T11:45:48;1271.87;;;999.90;;
10890;SDS011;5498;50.928;11.598;2022-07-29T11:48:50;1280.67;;;999.90;;
10890;SDS011;5498;50.928;11.598;2022-07-29T11:51:56;1288.60;;;999.90;;
10890;SDS011;5498;50.928;11.598;2022-07-29T11:55:01;1287.63;;;999.90;;
10890;SDS011;5498;50.928;11.598;2022-07-29T11:58:06;1288.90;;;999.90;;
10890;SDS011;5498;50.928;11.598;2022-07-29T12:01:13;1290.03;;;999.90;;
10890;SDS011;5498;50.928;11.598;2022-07-29T12:04:19;1295.93;;;999.90;;
10890;SDS011;5498;50.928;11.598;2022-07-29T12:07:26;1293.70;;;999.90;;
10890;SDS011;5498;50.928;11.598;2022-07-29T12:10:31;1288.43;;;999.90;;
10890;SDS011;5498;50.928;11.598;2022-07-29T12:13:38;1297.13;;;999.90;;
10890;SDS011;5498;50.928;11.598;2022-07-29T12:16:42;1284.43;;;999.90;;
10890;SDS011;5498;50.928;11.598;2022-07-29T12:19:44;1278.83;;;999.90;;
10890;SDS011;5498;50.928;11.598;2022-07-29T12:22:46;1294.27;;;999.90;;
10890;SDS011;5498;50.928;11.598;2022-07-29T12:25:49;1288.70;;;999.90;;
10890;SDS011;5498;50.928;11.598;2022-07-29T12:28:52;1282.23;;;999.90;;
10890;SDS011;5498;50.928;11.598;2022-07-29T12:31:56;1290.57;;;999.90;;
10890;SDS011;5498;50.928;11.598;2022-07-29T12:35:01;1291.90;;;999.90;;
10890;SDS011;5498;50.928;11.598;2022-07-29T12:38:06;1282.27;;;999.90;;
10890;SDS011;5498;50.928;11.598;2022-07-29T12:41:11;1266.30;;;999.90;;
10890;SDS011;5498;50.928;11.598;2022-07-29T12:44:13;1268.20;;;999.90;;
10890;SDS011;5498;50.928;11.598;2022-07-29T12:47:17;1273.17;;;999.90;;
10890;SDS011;5498;50.928;11.598;2022-07-29T12:50:20;1270.60;;;999.90;;
10890;SDS011;5498;50.928;11.598;2022-07-29T12:53:24;1278.30;;;999.90;;
10890;SDS011;5498;50.928;11.598;2022-07-29T12:56:27;1283.43;;;999.90;;
10890;SDS011;5498;50.928;11.598;2022-07-29T12:59:29;1262.70;;;999.90;;
10890;SDS011;5498;50.928;11.598;2022-07-29T13:02:33;1268.23;;;999.90;;
10890;SDS011;5498;50.928;11.598;2022-07-29T13:05:39;1277.23;;;999.90;;
10890;SDS011;5498;50.928;11.598;2022-07-29T13:08:53;1278.13;;;999.90;;
10890;SDS011;5498;50.928;11.598;2022-07-29T13:12:01;1278.77;;;999.90;;
10890;SDS011;5498;50.928;11.598;2022-07-29T13:15:14;1274.03;;;999.90;;
10890;SDS011;5498;50.928;11.598;2022-07-29T13:18:28;1282.37;;;999.90;;
10890;SDS011;5498;50.928;11.598;2022-07-29T13:21:31;1260.73;;;999.90;;
10890;SDS011;5498;50.928;11.598;2022-07-29T13:24:44;1273.23;;;999.90;;
10890;SDS011;5498;50.928;11.598;2022-07-29T13:27:51;1269.93;;;999.90;;
10890;SDS011;5498;50.928;11.598;2022-07-29T13:30:58;1272.87;;;999.90;;
10890;SDS011;5498;50.928;11.598;2022-07-29T13:34:05;1277.70;;;999.90;;
10890;SDS011;5498;50.928;11.598;2022-07-29T13:37:08;1283.87;;;999.90;;
10890;SDS011;5498;50.928;11.598;2022-07-29T13:40:11;1257.03;;;999.90;;
10890;SDS011;5498;50.928;11.598;2022-07-29T13:43:14;1267.63;;;999.90;;
10890;SDS011;5498;50.928;11.598;2022-07-29T13:46:16;1258.43;;;999.90;;
10890;SDS011;5498;50.928;11.598;2022-07-29T13:49:21;1281.80;;;999.90;;
10890;SDS011;5498;50.928;11.598;2022-07-29T13:52:23;1269.00;;;999.90;;
10890;SDS011;5498;50.928;11.598;2022-07-29T13:55:26;1288.73;;;999.90;;
10890;SDS011;5498;50.928;11.598;2022-07-29T13:58:28;1277.30;;;999.90;;
10890;SDS011;5498;50.928;11.598;2022-07-29T14:01:37;1274.87;;;999.90;;
10890;SDS011;5498;50.928;11.598;2022-07-29T14:04:44;1276.67;;;999.90;;
10890;SDS011;5498;50.928;11.598;2022-07-29T14:07:48;1284.00;;;999.90;;
10890;SDS011;5498;50.928;11.598;2022-07-29T14:10:50;1278.43;;;999.90;;
10890;SDS011;5498;50.928;11.598;2022-07-29T14:13:53;1277.17;;;999.90;;
10890;SDS011;5498;50.928;11.598;2022-07-29T14:16:56;1265.40;;;999.90;;
10890;SDS011;5498;50.928;11.598;2022-07-29T14:20:00;1270.27;;;999.90;;
10890;SDS011;5498;50.928;11.598;2022-07-29T14:23:07;1271.50;;;999.90;;
10890;SDS011;5498;50.928;11.598;2022-07-29T14:26:10;1261.47;;;999.90;;
10890;SDS011;5498;50.928;11.598;2022-07-29T14:29:13;1270.57;;;999.90;;
10890;SDS011;5498;50.928;11.598;2022-07-29T14:32:17;1273.33;;;999.90;;
10890;SDS011;5498;50.928;11.598;2022-07-29T14:35:20;1266.00;;;999.90;;
10890;SDS011;5498;50.928;11.598;2022-07-29T14:38:22;1273.80;;;999.90;;
10890;SDS011;5498;50.928;11.598;2022-07-29T14:41:24;1280.00;;;999.90;;
10890;SDS011;5498;50.928;11.598;2022-07-29T14:44:28;1265.93;;;999.90;;
10890;SDS011;5498;50.928;11.598;2022-07-29T14:47:35;1277.60;;;999.90;;
10890;SDS011;5498;50.928;11.598;2022-07-29T14:50:40;1270.00;;;999.90;;
10890;SDS011;5498;50.928;11.598;2022-07-29T14:53:42;1292.13;;;999.90;;
10890;SDS011;5498;50.928;11.598;2022-07-29T14:56:50;1268.37;;;999.90;;
10890;SDS011;5498;50.928;11.598;2022-07-29T14:59:55;1277.40;;;999.90;;
10890;SDS011;5498;50.928;11.598;2022-07-29T15:02:58;1279.43;;;999.90;;
10890;SDS011;5498;50.928;11.598;2022-07-29T15:06:01;1275.07;;;999.90;;
10890;SDS011;5498;50.928;11.598;2022-07-29T15:09:04;1267.10;;;999.90;;
10890;SDS011;5498;50.928;11.598;2022-07-29T15:12:06;1279.80;;;999.90;;
10890;SDS011;5498;50.928;11.598;2022-07-29T15:15:12;1287.23;;;999.90;;
10890;SDS011;5498;50.928;11.598;2022-07-29T15:18:14;1294.63;;;999.90;;
10890;SDS011;5498;50.928;11.598;2022-07-29T15:21:17;1294.77;;;999.90;;
10890;SDS011;5498;50.928;11.598;2022-07-29T15:24:23;1293.00;;;999.90;;
10890;SDS011;5498;50.928;11.598;2022-07-29T15:27:26;1300.20;;;999.90;;
10890;SDS011;5498;50.928;11.598;2022-07-29T15:30:30;1291.40;;;999.90;;
10890;SDS011;5498;50.928;11.598;2022-07-29T15:33:40;1295.97;;;999.90;;
10890;SDS011;5498;50.928;11.598;2022-07-29T15:36:48;1295.67;;;999.90;;
10890;SDS011;5498;50.928;11.598;2022-07-29T15:39:52;1297.63;;;999.90;;
10890;SDS011;5498;50.928;11.598;2022-07-29T15:42:54;1300.80;;;999.90;;
10890;SDS011;5498;50.928;11.598;2022-07-29T15:45:56;1297.43;;;999.90;;
10890;SDS011;5498;50.928;11.598;2022-07-29T15:49:16;1286.73;;;999.90;;
10890;SDS011;5498;50.928;11.598;2022-07-29T15:52:19;1297.93;;;999.90;;
10890;SDS011;5498;50.928;11.598;2022-07-29T15:55:21;1293.17;;;999.90;;
10890;SDS011;5498;50.928;11.598;2022-07-29T15:58:24;1302.40;;;999.90;;
10890;SDS011;5498;50.928;11.598;2022-07-29T16:01:26;1281.03;;;999.90;;
10890;SDS011;5498;50.928;11.598;2022-07-29T16:04:28;1287.67;;;999.90;;
10890;SDS011;5498;50.928;11.598;2022-07-29T16:07:32;1284.80;;;999.90;;
10890;SDS011;5498;50.928;11.598;2022-07-29T16:10:35;1284.47;;;999.90;;
10890;SDS011;5498;50.928;11.598;2022-07-29T16:13:36;1276.27;;;999.90;;
10890;SDS011;5498;50.928;11.598;2022-07-29T16:16:38;1276.47;;;999.90;;
10890;SDS011;5498;50.928;11.598;2022-07-29T16:19:41;1290.83;;;999.90;;
10890;SDS011;5498;50.928;11.598;2022-07-29T16:22:45;1290.50;;;999.90;;
10890;SDS011;5498;50.928;11.598;2022-07-29T16:25:47;1275.70;;;999.90;;
10890;SDS011;5498;50.928;11.598;2022-07-29T16:28:49;1275.90;;;999.90;;
10890;SDS011;5498;50.928;11.598;2022-07-29T16:31:52;1279.87;;;999.90;;
10890;SDS011;5498;50.928;11.598;2022-07-29T16:34:53;1288.20;;;999.90;;
10890;SDS011;5498;50.928;11.598;2022-07-29T16:37:57;1282.03;;;999.90;;
10890;SDS011;5498;50.928;11.598;2022-07-29T16:41:00;1288.70;;;999.90;;
10890;SDS011;5498;50.928;11.598;2022-07-29T16:44:02;1279.87;;;999.90;;
10890;SDS011;5498;50.928;11.598;2022-07-29T16:47:04;1282.93;;;999.90;;
10890;SDS011;5498;50.928;11.598;2022-07-29T16:50:07;1281.77;;;999.90;;
10890;SDS011;5498;50.928;11.598;2022-07-29T16:53:12;1286.13;;;999.90;;
10890;SDS011;5498;50.928;11.598;2022-07-29T16:56:18;1284.73;;;999.90;;
10890;SDS011;5498;50.928;11.598;2022-07-29T16:59:21;1270.93;;;999.90;;
10890;SDS011;5498;50.928;11.598;2022-07-29T17:02:24;1282.40;;;999.90;;
10890;SDS011;5498;50.928;11.598;2022-07-29T17:05:27;1268.03;;;999.90;;
10890;SDS011;5498;50.928;11.598;2022-07-29T17:08:31;1289.47;;;999.90;;
10890;SDS011;5498;50.928;11.598;2022-07-29T17:11:33;1274.30;;;999.90;;
10890;SDS011;5498;50.928;11.598;2022-07-29T17:14:36;1259.63;;;999.90;;
10890;SDS011;5498;50.928;11.598;2022-07-29T17:17:38;1273.30;;;999.90;;
10890;SDS011;5498;50.928;11.598;2022-07-29T17:20:40;1280.10;;;999.90;;
10890;SDS011;5498;50.928;11.598;2022-07-29T17:23:59;1275.90;;;999.90;;
10890;SDS011;5498;50.928;11.598;2022-07-29T17:27:01;1279.60;;;999.90;;
10890;SDS011;5498;50.928;11.598;2022-07-29T17:30:04;1271.10;;;999.90;;
10890;SDS011;5498;50.928;11.598;2022-07-29T17:33:07;1282.17;;;999.90;;
10890;SDS011;5498;50.928;11.598;2022-07-29T17:36:09;1275.80;;;999.90;;
10890;SDS011;5498;50.928;11.598;2022-07-29T17:39:25;1278.33;;;999.90;;
10890;SDS011;5498;50.928;11.598;2022-07-29T17:42:27;1277.73;;;999.90;;